Time;durP1;ratioP1;P1;durP2;ratioP2;P2;SDS_P1;SDS_P2;PMS_P1;PMS_P2;Temp;Humidity;BMP_temperature;BMP_pressure;BME280_temperature;BME280_humidity;BME280_pressure;Samples;Min_cycle;Max_cycle;Signal;HPM_P1;HPM_P2
2022/10/28 00:02:17;;;;;;;17.20;7.13;;;14.60;99.90;;;;;;4957346;28;20030;-66
2022/10/28 00:04:43;;;;;;;14.05;6.22;;;14.60;99.90;;;;;;4974743;28;20042;-66
2022/10/28 00:07:08;;;;;;;16.08;5.60;;;14.60;99.90;;;;;;4957100;28;20077;-66
2022/10/28 00:09:34;;;;;;;10.75;6.25;;;14.60;99.90;;;;;;4957577;28;20069;-66
2022/10/28 00:11:59;;;;;;;11.18;5.43;;;14.60;99.90;;;;;;4957245;28;20073;-66
2022/10/28 00:14:25;;;;;;;9.15;5.13;;;14.60;99.90;;;;;;4957906;28;20030;-66
2022/10/28 00:16:50;;;;;;;9.52;4.90;;;14.50;99.90;;;;;;4957273;28;20022;-66
2022/10/28 00:19:16;;;;;;;25.92;8.93;;;14.40;99.90;;;;;;4956998;28;20030;-66
2022/10/28 00:21:43;;;;;;;43.30;17.67;;;14.40;99.90;;;;;;4957213;28;20026;-66
2022/10/28 00:24:10;;;;;;;26.15;11.30;;;14.30;99.90;;;;;;4957305;28;20038;-66
2022/10/28 00:26:38;;;;;;;18.30;9.23;;;14.30;99.90;;;;;;4956920;28;20022;-66
2022/10/28 00:29:06;;;;;;;21.50;9.05;;;14.30;99.90;;;;;;4974349;28;20135;-66
2022/10/28 00:31:33;;;;;;;13.95;5.82;;;14.30;99.90;;;;;;4956946;28;20023;-66
2022/10/28 00:34:01;;;;;;;16.88;5.57;;;14.30;99.90;;;;;;4957829;28;20033;-66
2022/10/28 00:36:30;;;;;;;11.57;4.85;;;14.30;99.90;;;;;;4957096;28;20051;-66
2022/10/28 00:38:56;;;;;;;7.78;4.63;;;14.40;99.90;;;;;;4975476;28;20031;-66
2022/10/28 00:41:25;;;;;;;12.68;4.90;;;14.30;99.90;;;;;;4977748;28;20034;-66
2022/10/28 00:43:53;;;;;;;11.82;4.97;;;14.30;99.90;;;;;;4977827;28;20027;-66
2022/10/28 00:46:43;;;;;;;7.00;4.22;;;14.30;99.90;;;;;;4960351;28;20030;-66
2022/10/28 00:49:13;;;;;;;10.30;4.22;;;14.30;99.90;;;;;;4961266;28;20054;-66
2022/10/28 00:51:40;;;;;;;8.03;3.90;;;14.30;99.90;;;;;;4978052;28;20035;-66
2022/10/28 00:54:07;;;;;;;10.98;5.00;;;14.20;99.90;;;;;;4960320;28;20031;-66
2022/10/28 00:56:39;;;;;;;10.77;4.55;;;14.10;99.90;;;;;;4977488;28;20034;-66
2022/10/28 00:59:12;;;;;;;11.30;4.25;;;14.10;99.90;;;;;;4977525;28;20482;-66
2022/10/28 01:01:37;;;;;;;7.38;4.60;;;14.10;99.90;;;;;;4977361;28;20070;-66
2022/10/28 01:04:03;;;;;;;15.98;5.85;;;14.10;99.90;;;;;;4960169;28;20059;-66
2022/10/28 01:06:29;;;;;;;11.48;4.93;;;14.20;99.90;;;;;;4960125;28;20027;-65
2022/10/28 01:08:54;;;;;;;10.13;4.07;;;14.10;99.90;;;;;;4977570;28;20054;-66
2022/10/28 01:11:34;;;;;;;12.20;4.68;;;14.20;99.90;;;;;;4977239;28;20038;-66
2022/10/28 01:14:37;;;;;;;7.57;4.82;;;14.20;99.90;;;;;;4960639;28;20023;-66
2022/10/28 01:17:26;;;;;;;12.82;5.35;;;14.20;99.90;;;;;;4960281;28;20023;-66
2022/10/28 01:19:54;;;;;;;11.20;5.75;;;14.20;99.90;;;;;;4924565;28;20074;-66
2022/10/28 01:22:32;;;;;;;15.73;5.38;;;14.30;99.90;;;;;;4959855;28;20046;-66
2022/10/28 01:25:27;;;;;;;20.00;6.13;;;14.30;99.90;;;;;;4977262;28;20054;-66
2022/10/28 01:28:20;;;;;;;10.80;5.40;;;14.40;99.90;;;;;;4960588;28;20027;-66
2022/10/28 01:31:23;;;;;;;7.38;4.53;;;14.20;99.90;;;;;;4977327;28;20027;-66
2022/10/28 01:34:12;;;;;;;9.98;5.43;;;14.30;99.90;;;;;;4977092;28;20053;-66
2022/10/28 01:37:01;;;;;;;13.73;5.47;;;14.30;99.90;;;;;;4923744;28;20074;-66
2022/10/28 01:39:45;;;;;;;13.15;5.07;;;14.40;99.90;;;;;;4976933;28;20034;-66
2022/10/28 01:42:49;;;;;;;12.27;4.75;;;14.40;99.90;;;;;;4959370;28;20058;-66
2022/10/28 01:45:22;;;;;;;7.85;4.88;;;14.40;99.90;;;;;;4976921;28;20110;-66
2022/10/28 01:48:00;;;;;;;8.85;4.57;;;14.40;99.90;;;;;;4959345;28;20421;-68
2022/10/28 01:50:31;;;;;;;9.50;4.85;;;14.40;99.90;;;;;;4976217;28;20027;-68
2022/10/28 01:53:02;;;;;;;9.15;4.97;;;14.40;99.90;;;;;;4959371;28;20034;-68
2022/10/28 01:55:34;;;;;;;13.52;5.20;;;14.40;99.90;;;;;;4959960;28;20027;-67
2022/10/28 01:58:01;;;;;;;10.70;4.93;;;14.30;99.90;;;;;;4960234;28;20023;-68
2022/10/28 02:00:28;;;;;;;16.50;5.60;;;14.30;99.90;;;;;;4959700;28;20029;-68
2022/10/28 02:02:55;;;;;;;10.82;5.72;;;14.40;99.90;;;;;;4959205;28;20027;-66
2022/10/28 02:05:40;;;;;;;20.40;5.28;;;14.40;99.90;;;;;;4976289;28;20027;-66
2022/10/28 02:08:36;;;;;;;12.75;5.85;;;14.40;99.90;;;;;;4959022;28;20030;-67
2022/10/28 02:11:23;;;;;;;11.38;5.50;;;14.50;99.90;;;;;;4976317;28;20031;-68
2022/10/28 02:14:03;;;;;;;10.38;5.43;;;14.70;99.90;;;;;;4958943;28;20375;-68
2022/10/28 02:16:47;;;;;;;14.95;5.72;;;14.80;99.90;;;;;;4976346;28;20027;-68
2022/10/28 02:19:36;;;;;;;7.70;5.45;;;14.90;99.90;;;;;;4959601;28;20027;-68
2022/10/28 02:22:31;;;;;;;13.00;6.47;;;15.00;99.90;;;;;;4959490;28;20027;-68
2022/10/28 02:25:19;;;;;;;9.90;6.05;;;15.00;99.90;;;;;;4925244;28;20111;-68
2022/10/28 02:27:57;;;;;;;10.48;6.10;;;15.10;99.90;;;;;;4958624;28;20040;-68
2022/10/28 02:30:33;;;;;;;10.68;6.18;;;15.10;99.90;;;;;;4975984;28;20042;-68
2022/10/28 02:33:02;;;;;;;14.80;6.43;;;15.10;99.90;;;;;;4975919;28;20027;-68
2022/10/28 02:35:40;;;;;;;16.73;5.95;;;15.10;99.90;;;;;;4958579;28;20034;-68
2022/10/28 02:38:14;;;;;;;11.40;6.95;;;15.10;99.90;;;;;;4977920;23;20031;-67
2022/10/28 02:40:42;;;;;;;13.00;7.10;;;15.10;99.90;;;;;;4956015;28;20031;-67
2022/10/28 02:43:12;;;;;;;12.38;6.63;;;14.90;99.90;;;;;;4956364;28;20482;-67
2022/10/28 02:45:40;;;;;;;12.38;6.72;;;14.70;99.90;;;;;;4955046;28;20102;-67
2022/10/28 02:48:15;;;;;;;24.02;7.25;;;14.70;99.90;;;;;;4954883;28;20023;-67
2022/10/28 02:50:47;;;;;;;17.55;6.30;;;14.70;99.90;;;;;;4956483;28;20035;-67
2022/10/28 02:53:20;;;;;;;9.90;5.72;;;14.70;99.90;;;;;;4954964;29;20035;-67
2022/10/28 02:55:51;;;;;;;11.85;6.40;;;14.90;99.90;;;;;;4954913;28;20023;-67
2022/10/28 02:58:17;;;;;;;11.80;6.18;;;15.00;99.90;;;;;;4954826;28;20032;-67
2022/10/28 03:00:44;;;;;;;13.20;7.07;;;14.90;99.90;;;;;;4955854;28;20045;-67
2022/10/28 03:03:10;;;;;;;14.18;7.15;;;14.80;99.90;;;;;;4954674;28;20403;-67
2022/10/28 03:05:35;;;;;;;15.88;6.85;;;14.80;99.90;;;;;;4954750;29;20037;-67
2022/10/28 03:08:01;;;;;;;14.70;7.38;;;14.80;99.90;;;;;;4954682;28;20019;-67
2022/10/28 03:10:26;;;;;;;13.93;7.10;;;14.80;99.90;;;;;;4954964;29;20019;-68
2022/10/28 03:12:52;;;;;;;16.20;6.35;;;14.70;99.90;;;;;;4955431;28;20027;-67
2022/10/28 03:15:17;;;;;;;18.17;6.53;;;14.70;99.90;;;;;;4954747;29;20122;-67
2022/10/28 03:17:43;;;;;;;14.82;7.72;;;14.70;99.90;;;;;;4954769;28;20027;-67
2022/10/28 03:20:09;;;;;;;13.30;6.82;;;14.70;99.90;;;;;;4956260;28;20027;-67
2022/10/28 03:22:34;;;;;;;11.38;5.95;;;14.80;99.90;;;;;;4954716;28;20020;-67
2022/10/28 03:25:00;;;;;;;16.48;6.13;;;14.80;99.90;;;;;;4955608;28;20030;-67
2022/10/28 03:27:25;;;;;;;12.70;6.18;;;14.80;99.90;;;;;;4954285;28;20027;-67
2022/10/28 03:29:51;;;;;;;13.85;6.70;;;14.80;99.90;;;;;;4954358;28;20026;-68
2022/10/28 03:32:16;;;;;;;12.13;5.70;;;14.80;99.90;;;;;;4954353;28;20037;-68
2022/10/28 03:34:42;;;;;;;16.30;5.53;;;14.80;99.90;;;;;;4955308;28;20031;-68
2022/10/28 03:37:08;;;;;;;12.40;5.10;;;14.80;99.90;;;;;;4955546;28;20041;-68
2022/10/28 03:39:34;;;;;;;11.90;5.55;;;14.80;99.90;;;;;;4954335;28;20039;-68
2022/10/28 03:42:00;;;;;;;16.67;5.28;;;14.90;99.90;;;;;;4955482;28;20042;-68
2022/10/28 03:44:25;;;;;;;10.77;5.00;;;15.00;99.90;;;;;;4954122;29;20114;-67
2022/10/28 03:46:51;;;;;;;8.18;4.13;;;15.10;99.90;;;;;;4954223;29;20055;-68
2022/10/28 03:49:16;;;;;;;10.93;4.50;;;15.10;99.90;;;;;;4954423;28;20034;-68
2022/10/28 03:51:42;;;;;;;11.75;4.45;;;15.30;99.90;;;;;;4955280;28;20042;-68
2022/10/28 03:54:07;;;;;;;12.57;4.15;;;15.40;99.90;;;;;;4954125;28;20035;-68
2022/10/28 03:56:33;;;;;;;12.10;4.10;;;15.50;99.90;;;;;;4954316;28;20061;-68
2022/10/28 03:58:58;;;;;;;13.95;4.60;;;15.70;99.90;;;;;;4955565;28;20067;-68
2022/10/28 04:01:24;;;;;;;16.38;4.47;;;15.80;99.90;;;;;;4954031;29;20031;-68
2022/10/28 04:03:49;;;;;;;19.30;4.57;;;15.80;99.90;;;;;;4955468;28;20360;-68
2022/10/28 04:06:15;;;;;;;11.40;4.60;;;15.90;99.90;;;;;;4953946;28;20118;-68
2022/10/28 04:08:41;;;;;;;12.80;4.60;;;15.70;99.90;;;;;;4953844;28;20509;-68
2022/10/28 04:11:07;;;;;;;12.23;4.97;;;15.60;99.90;;;;;;4954732;28;20024;-68
2022/10/28 04:13:32;;;;;;;10.75;5.00;;;15.60;99.90;;;;;;4957440;28;20043;-68
2022/10/28 04:15:58;;;;;;;13.20;4.85;;;15.60;99.90;;;;;;4957754;28;20031;-68
2022/10/28 04:18:23;;;;;;;11.18;4.53;;;15.60;99.90;;;;;;4957688;28;20027;-68
2022/10/28 04:20:51;;;;;;;13.63;5.55;;;15.60;99.90;;;;;;4959238;28;20023;-68
2022/10/28 04:23:19;;;;;;;14.57;5.28;;;15.60;99.90;;;;;;4958771;29;20019;-68
2022/10/28 04:25:45;;;;;;;10.02;4.88;;;15.50;99.90;;;;;;4958901;28;20136;-68
2022/10/28 04:28:10;;;;;;;21.52;5.97;;;15.40;99.90;;;;;;4957550;28;20506;-68
2022/10/28 04:30:36;;;;;;;13.00;5.97;;;15.50;99.90;;;;;;4957858;28;20122;-68
2022/10/28 04:33:01;;;;;;;9.27;5.00;;;15.60;99.90;;;;;;4957635;28;20031;-68
2022/10/28 04:35:27;;;;;;;16.98;5.35;;;15.70;99.90;;;;;;4959328;28;20066;-68
2022/10/28 04:37:52;;;;;;;14.05;4.80;;;15.70;99.90;;;;;;4958119;28;20409;-68
2022/10/28 04:40:18;;;;;;;11.13;5.38;;;16.10;99.90;;;;;;4957286;28;20050;-68
2022/10/28 04:42:43;;;;;;;10.18;5.30;;;16.10;99.90;;;;;;4957389;28;20180;-68
2022/10/28 04:45:09;;;;;;;16.67;5.25;;;16.10;99.90;;;;;;4958735;28;20082;-67
2022/10/28 04:47:35;;;;;;;15.13;5.18;;;16.00;99.90;;;;;;4958412;28;20020;-66
2022/10/28 04:50:01;;;;;;;12.48;5.40;;;16.10;99.90;;;;;;4957541;28;20034;-67
2022/10/28 04:52:27;;;;;;;16.85;5.53;;;16.00;99.90;;;;;;4957214;28;20024;-67
2022/10/28 04:54:52;;;;;;;13.65;6.03;;;15.90;99.90;;;;;;4957199;29;20034;-67
2022/10/28 04:57:18;;;;;;;16.90;5.28;;;15.60;99.90;;;;;;4958479;28;20364;-67
2022/10/28 04:59:44;;;;;;;11.68;5.35;;;15.50;99.90;;;;;;4967572;28;20113;-67
2022/10/28 05:02:10;;;;;;;12.73;5.00;;;15.40;99.90;;;;;;4976468;28;20513;-67
2022/10/28 05:04:35;;;;;;;8.75;4.78;;;15.40;99.90;;;;;;4976180;28;20023;-67
2022/10/28 05:07:01;;;;;;;15.57;4.97;;;15.30;99.90;;;;;;4976439;28;20070;-67
2022/10/28 05:09:26;;;;;;;15.75;5.60;;;15.30;99.90;;;;;;4975982;28;20023;-67
2022/10/28 05:11:53;;;;;;;13.57;5.15;;;15.30;99.90;;;;;;4977262;28;20035;-67
2022/10/28 05:14:18;;;;;;;12.55;4.60;;;15.30;99.90;;;;;;4977233;28;20110;-67
2022/10/28 05:16:44;;;;;;;8.13;4.68;;;15.30;99.90;;;;;;4975911;28;20117;-67
2022/10/28 05:19:09;;;;;;;8.27;3.70;;;15.30;99.90;;;;;;4976353;28;20026;-67
2022/10/28 05:21:35;;;;;;;16.85;4.97;;;15.30;99.90;;;;;;4976199;28;20375;-67
2022/10/28 05:24:00;;;;;;;9.88;4.55;;;15.30;99.90;;;;;;4975997;28;20026;-67
2022/10/28 05:26:26;;;;;;;17.35;4.97;;;15.30;99.90;;;;;;4975416;28;20446;-67
2022/10/28 05:28:51;;;;;;;12.80;4.82;;;15.20;99.90;;;;;;4975713;28;20026;-67
2022/10/28 05:31:17;;;;;;;16.17;5.07;;;15.20;99.90;;;;;;4975616;28;20029;-67
2022/10/28 05:33:43;;;;;;;18.90;5.18;;;15.20;99.90;;;;;;4976554;28;20035;-67
2022/10/28 05:36:09;;;;;;;14.98;5.20;;;15.20;99.90;;;;;;4977416;28;20027;-67
2022/10/28 05:38:34;;;;;;;15.30;5.20;;;15.10;99.90;;;;;;4976674;28;20047;-67
2022/10/28 05:41:00;;;;;;;21.08;6.32;;;15.00;99.90;;;;;;4975519;28;20038;-67
2022/10/28 05:43:25;;;;;;;12.18;4.93;;;14.90;99.90;;;;;;4975533;28;20074;-67
2022/10/28 05:45:56;;;;;;;11.55;4.90;;;14.90;99.90;;;;;;4975536;28;20030;-67
2022/10/28 05:48:22;;;;;;;10.02;4.32;;;14.80;99.90;;;;;;4976688;28;20026;-67
2022/10/28 05:50:48;;;;;;;17.05;5.10;;;14.90;99.90;;;;;;4975440;28;20078;-67
2022/10/28 05:53:13;;;;;;;11.00;4.60;;;14.90;99.90;;;;;;4975434;28;20034;-67
2022/10/28 05:55:39;;;;;;;12.73;4.65;;;14.80;99.90;;;;;;4976505;28;20030;-67
2022/10/28 05:58:05;;;;;;;11.73;4.97;;;14.80;99.90;;;;;;4976058;28;20030;-67
2022/10/28 06:00:30;;;;;;;13.05;6.32;;;14.80;99.90;;;;;;4975219;28;20031;-67
2022/10/28 06:03:08;;;;;;;10.40;4.57;;;14.80;99.90;;;;;;4975301;28;20085;-67
2022/10/28 06:05:34;;;;;;;9.98;4.47;;;14.70;99.90;;;;;;4976150;28;20093;-67
2022/10/28 06:07:59;;;;;;;12.52;4.40;;;14.60;99.90;;;;;;4975410;28;20023;-67
2022/10/28 06:10:25;;;;;;;8.23;4.25;;;14.50;99.90;;;;;;4975341;28;20034;-67
2022/10/28 06:12:50;;;;;;;14.57;5.93;;;14.50;99.90;;;;;;4975093;28;20054;-67
2022/10/28 06:15:16;;;;;;;13.85;5.43;;;14.60;99.90;;;;;;4976052;28;20031;-67
2022/10/28 06:17:41;;;;;;;11.57;5.68;;;14.70;99.90;;;;;;4976257;28;20034;-67
2022/10/28 06:20:07;;;;;;;19.70;5.65;;;14.70;99.90;;;;;;4975987;28;20027;-67
2022/10/28 06:22:33;;;;;;;12.63;5.65;;;14.80;99.90;;;;;;4976356;28;20031;-67
2022/10/28 06:24:59;;;;;;;13.77;6.28;;;14.90;99.90;;;;;;4976019;28;20034;-67
2022/10/28 06:27:24;;;;;;;21.00;7.00;;;15.00;99.90;;;;;;4974677;28;20019;-67
2022/10/28 06:29:50;;;;;;;11.70;5.72;;;15.10;99.90;;;;;;4975502;28;20035;-67
2022/10/28 06:32:15;;;;;;;17.08;6.25;;;15.20;99.90;;;;;;4974853;28;20385;-67
2022/10/28 06:34:41;;;;;;;17.52;6.18;;;15.20;99.90;;;;;;4976068;28;20054;-67
2022/10/28 06:37:06;;;;;;;14.30;5.63;;;15.20;99.90;;;;;;4974616;28;20054;-67
2022/10/28 06:39:32;;;;;;;10.40;5.63;;;15.20;99.90;;;;;;4974253;28;20229;-66
2022/10/28 06:41:58;;;;;;;11.13;5.85;;;15.20;99.90;;;;;;4975678;28;20031;-67
2022/10/28 06:44:23;;;;;;;15.13;5.97;;;15.30;99.90;;;;;;4974350;28;20019;-67
2022/10/28 06:46:49;;;;;;;11.60;5.78;;;15.40;99.90;;;;;;4974417;28;20023;-67
2022/10/28 06:49:14;;;;;;;13.85;5.35;;;15.40;99.90;;;;;;4976769;28;20023;-67
2022/10/28 06:51:40;;;;;;;15.02;5.32;;;15.40;99.90;;;;;;4975516;28;20031;-67
2022/10/28 06:54:05;;;;;;;16.00;5.47;;;15.40;99.90;;;;;;4974479;28;20030;-67
2022/10/28 06:56:31;;;;;;;11.65;5.40;;;15.40;99.90;;;;;;4975284;28;20027;-67
2022/10/28 06:58:56;;;;;;;17.80;5.70;;;15.30;99.90;;;;;;4974096;28;20027;-67
2022/10/28 07:01:22;;;;;;;11.75;5.03;;;15.40;99.90;;;;;;4974260;28;20038;-67
2022/10/28 07:03:48;;;;;;;10.68;4.75;;;15.50;99.90;;;;;;4975262;28;20038;-67
2022/10/28 07:06:14;;;;;;;17.00;5.00;;;15.50;99.90;;;;;;4974027;28;20162;-67
2022/10/28 07:08:40;;;;;;;14.20;5.32;;;15.60;99.90;;;;;;4974183;28;20031;-67
2022/10/28 07:11:39;;;;;;;13.38;5.18;;;15.70;99.90;;;;;;4973861;28;20030;-67
2022/10/28 07:14:05;;;;;;;8.82;4.50;;;15.80;99.90;;;;;;4974711;28;20027;-67
2022/10/28 07:16:30;;;;;;;9.52;4.30;;;15.70;99.90;;;;;;4975361;28;20100;-67
2022/10/28 07:18:56;;;;;;;21.73;4.95;;;15.70;99.90;;;;;;4973818;28;20027;-67
2022/10/28 07:21:27;;;;;;;11.70;5.07;;;15.80;99.90;;;;;;4973636;28;20023;-67
2022/10/28 07:23:53;;;;;;;15.25;4.85;;;15.80;99.90;;;;;;4974654;28;20026;-67
2022/10/28 07:26:18;;;;;;;12.23;4.65;;;15.80;99.90;;;;;;4974839;28;20027;-67
2022/10/28 07:28:44;;;;;;;15.05;4.50;;;15.90;99.90;;;;;;4973945;28;20497;-67
2022/10/28 07:31:09;;;;;;;12.80;4.18;;;16.00;99.90;;;;;;4973675;28;20030;-67
2022/10/28 07:33:35;;;;;;;8.10;3.83;;;16.10;99.90;;;;;;4975021;28;20537;-67
2022/10/28 07:36:05;;;;;;;11.85;4.05;;;16.20;99.90;;;;;;4974462;28;20114;-67
2022/10/28 07:38:32;;;;;;;17.75;4.00;;;16.30;99.90;;;;;;4974800;28;20031;-67
2022/10/28 07:40:57;;;;;;;10.60;3.25;;;16.40;99.90;;;;;;4974261;28;20027;-67
2022/10/28 07:43:23;;;;;;;12.13;3.75;;;16.40;99.90;;;;;;4974938;28;20110;-67
2022/10/28 07:45:55;;;;;;;14.35;4.00;;;16.40;99.90;;;;;;4974831;28;20029;-67
2022/10/28 07:48:20;;;;;;;11.70;2.90;;;16.40;99.90;;;;;;4974456;28;20109;-67
2022/10/28 07:50:46;;;;;;;10.27;3.65;;;16.40;99.90;;;;;;4974516;28;20102;-67
2022/10/28 07:53:11;;;;;;;13.27;3.55;;;16.50;99.90;;;;;;4973353;28;20123;-67
2022/10/28 07:55:37;;;;;;;9.60;4.10;;;16.70;99.90;;;;;;4974898;28;20062;-67
2022/10/28 07:58:02;;;;;;;5.82;3.45;;;16.70;99.90;;;;;;4974452;28;20098;-67
2022/10/28 08:00:28;;;;;;;11.80;4.32;;;16.50;99.90;;;;;;4974482;28;20027;-67
2022/10/28 08:02:53;;;;;;;13.05;3.47;;;16.50;99.90;;;;;;4973259;28;20029;-68
2022/10/28 08:05:19;;;;;;;8.98;3.92;;;16.40;99.90;;;;;;4973184;28;20021;-68
2022/10/28 08:07:45;;;;;;;17.05;3.72;;;16.40;99.90;;;;;;4973147;28;20023;-67
2022/10/28 08:10:11;;;;;;;7.22;3.83;;;16.30;99.90;;;;;;4973520;28;20019;-67
2022/10/28 08:12:37;;;;;;;11.32;3.85;;;16.30;99.90;;;;;;4974451;28;20034;-67
2022/10/28 08:15:03;;;;;;;12.73;3.63;;;16.40;99.90;;;;;;4973235;28;20033;-67
2022/10/28 08:17:29;;;;;;;12.10;3.88;;;16.40;99.90;;;;;;4973132;28;20026;-67
2022/10/28 08:19:54;;;;;;;8.90;3.85;;;16.50;99.90;;;;;;4974710;28;20031;-68
2022/10/28 08:22:20;;;;;;;13.43;4.18;;;16.70;99.90;;;;;;4974250;28;20038;-68
2022/10/28 08:24:45;;;;;;;6.70;3.33;;;16.80;99.90;;;;;;4973375;28;20112;-68
2022/10/28 08:27:11;;;;;;;10.38;4.00;;;16.80;99.90;;;;;;4974433;28;20026;-68
2022/10/28 08:29:36;;;;;;;13.05;3.65;;;16.80;99.90;;;;;;4973210;28;20030;-67
2022/10/28 08:32:02;;;;;;;12.88;3.90;;;17.00;99.90;;;;;;4974501;28;20375;-67
2022/10/28 08:34:29;;;;;;;9.32;3.65;;;17.10;99.90;;;;;;4972890;28;20089;-68
2022/10/28 08:36:55;;;;;;;8.88;3.80;;;17.10;99.90;;;;;;4973157;28;20042;-68
2022/10/28 08:39:21;;;;;;;10.60;4.18;;;17.30;99.90;;;;;;4984861;23;20043;-64
2022/10/28 08:41:52;;;;;;;11.00;3.88;;;17.40;99.90;;;;;;4956842;28;20027;-64
2022/10/28 08:44:21;;;;;;;;;;;17.30;99.90;;;;;;4957320;28;20023;-64
2022/10/28 08:47:00;;;;;;;13.50;4.55;;;17.20;99.90;;;;;;4956790;28;20254;-64
2022/10/28 08:49:28;;;;;;;15.52;4.70;;;17.40;99.90;;;;;;4956725;28;20027;-64
2022/10/28 08:52:04;;;;;;;12.38;3.83;;;17.60;99.90;;;;;;4957090;28;20385;-64
2022/10/28 08:54:36;;;;;;;12.00;4.03;;;17.80;99.90;;;;;;4956810;28;20031;-64
2022/10/28 08:57:09;;;;;;;12.73;3.80;;;17.80;99.90;;;;;;4956707;28;20394;-64
2022/10/28 08:59:39;;;;;;;8.85;3.55;;;18.00;99.90;;;;;;4974372;28;20090;-64
2022/10/28 09:02:16;;;;;;;11.13;4.70;;;17.80;99.90;;;;;;4960410;28;20027;-64
2022/10/28 09:04:45;;;;;;;14.60;4.18;;;17.80;99.90;;;;;;4960508;28;20062;-64
2022/10/28 09:07:20;;;;;;;12.07;4.88;;;18.00;99.90;;;;;;4977586;28;20026;-64
2022/10/28 09:09:48;;;;;;;11.38;4.32;;;17.80;99.90;;;;;;4960046;28;20494;-64
2022/10/28 09:12:39;;;;;;;10.82;4.68;;;17.70;99.90;;;;;;4960776;28;20039;-64
2022/10/28 09:15:16;;;;;;;13.68;4.00;;;17.60;99.90;;;;;;4960157;28;20122;-64
2022/10/28 09:18:10;;;;;;;16.48;4.30;;;17.60;99.90;;;;;;4959832;28;20042;-64
2022/10/28 09:20:56;;;;;;;11.95;4.45;;;17.70;99.90;;;;;;4977345;28;20022;-64
2022/10/28 09:23:23;;;;;;;12.07;4.47;;;17.70;99.90;;;;;;4959842;28;20094;-64
2022/10/28 09:25:58;;;;;;;11.00;4.43;;;17.80;99.90;;;;;;4960364;28;20208;-64
2022/10/28 09:28:50;;;;;;;11.93;4.05;;;17.80;99.90;;;;;;4959667;28;20023;-64
2022/10/28 09:31:30;;;;;;;11.27;4.38;;;17.90;99.90;;;;;;4947355;28;20043;-64
2022/10/28 09:34:20;;;;;;;14.48;3.78;;;17.90;99.90;;;;;;4960531;28;20033;-64
2022/10/28 09:37:01;;;;;;;14.52;4.30;;;18.20;99.90;;;;;;4960280;28;20101;-64
2022/10/28 09:39:33;;;;;;;6.30;3.35;;;18.30;99.90;;;;;;4959834;28;20057;-64
2022/10/28 09:42:01;;;;;;;12.27;3.97;;;18.10;99.90;;;;;;4959474;28;20030;-64
2022/10/28 09:44:32;;;;;;;10.77;4.20;;;18.10;99.90;;;;;;4976892;28;20034;-64
2022/10/28 09:47:00;;;;;;;13.25;4.53;;;18.20;99.90;;;;;;4960107;28;20029;-64
2022/10/28 09:49:34;;;;;;;9.65;4.03;;;18.30;99.90;;;;;;4960203;28;20059;-64
2022/10/28 09:52:18;;;;;;;10.73;3.70;;;18.50;99.90;;;;;;4959449;28;20035;-64
2022/10/28 09:54:52;;;;;;;8.50;3.45;;;18.60;99.90;;;;;;4976589;28;20022;-64
2022/10/28 09:57:19;;;;;;;11.23;4.72;;;18.50;99.90;;;;;;4976880;28;20545;-64
2022/10/28 09:59:45;;;;;;;7.80;3.10;;;18.60;99.90;;;;;;4959558;28;20475;-64
2022/10/28 10:02:32;;;;;;;12.38;4.45;;;18.60;99.90;;;;;;4959160;28;20022;-64
2022/10/28 10:05:00;;;;;;;10.32;4.00;;;18.60;99.90;;;;;;4959264;28;20027;-64
2022/10/28 10:07:42;;;;;;;16.58;4.28;;;18.40;99.90;;;;;;4976603;28;20027;-64
2022/10/28 10:10:19;;;;;;;11.00;4.32;;;18.30;99.90;;;;;;4976294;28;20027;-64
2022/10/28 10:12:48;;;;;;;13.77;4.13;;;18.40;99.90;;;;;;4959107;28;20057;-64
2022/10/28 10:15:24;;;;;;;12.93;3.90;;;18.60;99.90;;;;;;4959317;28;20054;-64
2022/10/28 10:17:51;;;;;;;11.40;4.00;;;18.50;99.90;;;;;;4959652;28;20022;-64
2022/10/28 10:20:19;;;;;;;9.50;3.85;;;18.50;99.90;;;;;;4960035;28;20033;-64
2022/10/28 10:22:47;;;;;;;12.27;3.95;;;18.70;99.90;;;;;;4958738;28;20030;-64
2022/10/28 10:25:18;;;;;;;16.08;4.35;;;18.80;99.90;;;;;;4976062;28;20025;-64
2022/10/28 10:28:00;;;;;;;11.43;3.75;;;18.80;99.90;;;;;;4959537;28;20023;-64
2022/10/28 10:30:36;;;;;;;15.10;3.88;;;19.10;99.90;;;;;;4958676;28;20057;-64
2022/10/28 10:33:03;;;;;;;15.10;3.83;;;19.30;99.90;;;;;;4976390;28;20054;-64
2022/10/28 10:35:37;;;;;;;10.43;3.90;;;19.50;99.90;;;;;;4958773;28;20382;-64
2022/10/28 10:38:05;;;;;;;14.32;4.03;;;19.40;99.90;;;;;;4975618;28;20101;-64
2022/10/28 10:40:34;;;;;;;10.85;3.63;;;19.60;99.90;;;;;;4958390;28;20051;-64
2022/10/28 10:43:23;;;;;;;15.35;4.03;;;19.60;99.90;;;;;;4958503;28;20062;-64
2022/10/28 10:46:12;;;;;;;10.23;3.47;;;20.00;99.90;;;;;;4958629;28;20025;-64
2022/10/28 10:48:38;;;;;;;7.25;2.95;;;19.90;99.90;;;;;;4963950;28;20050;-64
2022/10/28 10:51:23;;;;;;;7.80;3.80;;;19.90;99.90;;;;;;4975857;28;20031;-64
2022/10/28 10:53:53;;;;;;;9.98;3.42;;;19.70;99.90;;;;;;4958240;28;20038;-64
2022/10/28 10:56:45;;;;;;;9.80;3.80;;;19.90;99.90;;;;;;4958468;28;20121;-64
2022/10/28 10:59:27;;;;;;;12.98;4.50;;;20.10;99.90;;;;;;4954442;28;20035;-64
2022/10/28 11:01:53;;;;;;;;;;;20.10;99.90;;;;;;4959067;28;20046;-64
2022/10/28 11:04:21;;;;;;;14.82;4.00;;;19.90;99.90;;;;;;4958112;28;19906;-64
2022/10/28 11:06:50;;;;;;;12.98;4.20;;;19.90;99.90;;;;;;4958979;28;20033;-64
2022/10/28 11:09:27;;;;;;;8.75;4.00;;;19.80;99.90;;;;;;4975383;28;20027;-64
2022/10/28 11:11:55;;;;;;;13.90;3.38;;;20.00;99.90;;;;;;4957963;28;20077;-64
2022/10/28 11:14:24;;;;;;;10.70;4.07;;;20.30;99.90;;;;;;4958353;28;20031;-65
2022/10/28 11:16:51;;;;;;;12.68;4.00;;;20.50;99.90;;;;;;4957693;28;20033;-65
2022/10/28 11:19:29;;;;;;;12.60;3.83;;;20.60;99.90;;;;;;4957640;28;20037;-65
2022/10/28 11:22:36;;;;;;;7.80;2.88;;;20.50;99.90;;;;;;4958534;28;20038;-65
2022/10/28 11:25:23;;;;;;;7.80;3.78;;;20.30;99.90;;;;;;4890380;28;20139;-65
2022/10/28 11:28:12;;;;;;;8.15;3.72;;;20.30;99.90;;;;;;4957817;28;20023;-66
2022/10/28 11:30:43;;;;;;;22.58;4.03;;;20.20;99.90;;;;;;4958769;28;20097;-66
2022/10/28 11:33:17;;;;;;;8.15;3.63;;;20.20;99.90;;;;;;4975228;28;20041;-65
2022/10/28 11:35:49;;;;;;;11.18;4.22;;;20.20;99.90;;;;;;4957420;28;20031;-65
2022/10/28 11:38:51;;;;;;;15.88;4.15;;;20.10;99.90;;;;;;4957291;28;20031;-65
2022/10/28 11:41:30;;;;;;;11.57;3.70;;;20.30;99.90;;;;;;4957419;28;20568;-65
2022/10/28 11:43:58;;;;;;;13.80;4.47;;;20.40;99.90;;;;;;4958474;28;20134;-65
2022/10/28 11:46:36;;;;;;;13.85;3.47;;;20.50;99.90;;;;;;4957645;28;20031;-65
2022/10/28 11:49:29;;;;;;;7.53;3.10;;;20.90;99.90;;;;;;4957319;28;20022;-65
2022/10/28 11:52:11;;;;;;;10.90;3.80;;;21.20;99.90;;;;;;4957693;28;20027;-66
2022/10/28 11:55:11;;;;;;;17.67;4.05;;;21.10;99.90;;;;;;4975120;28;20125;-66
2022/10/28 11:57:39;;;;;;;13.05;4.22;;;20.80;99.90;;;;;;4957826;28;20027;-65
2022/10/28 12:00:07;;;;;;;13.75;3.67;;;20.70;99.90;;;;;;4957217;28;20030;-65
2022/10/28 12:03:30;;;;;;;7.88;3.83;;;20.80;99.90;;;;;;4957445;28;20068;-65
2022/10/28 12:06:10;;;;;;;9.52;3.75;;;20.80;99.90;;;;;;4928645;28;20090;-65
2022/10/28 12:09:02;;;;;;;10.90;3.92;;;20.80;99.90;;;;;;4957711;28;20030;-65
2022/10/28 12:11:31;;;;;;;;;;;20.90;99.90;;;;;;4975391;28;20082;-65
2022/10/28 12:14:20;;;;;;;13.07;4.43;;;21.30;99.90;;;;;;4957369;28;19949;-65
2022/10/28 12:17:15;;;;;;;11.82;4.25;;;21.20;99.90;;;;;;4957959;28;20027;-65
2022/10/28 12:19:52;;;;;;;16.42;3.95;;;21.20;99.90;;;;;;4957368;28;20035;-65
2022/10/28 12:22:44;;;;;;;11.60;3.13;;;20.90;99.90;;;;;;4957346;28;20497;-65
2022/10/28 12:25:16;;;;;;;12.32;4.28;;;20.80;99.90;;;;;;4957347;28;20022;-65
2022/10/28 12:27:46;;;;;;;8.15;3.67;;;20.70;99.90;;;;;;4956884;28;20030;-65
2022/10/28 12:30:12;;;;;;;13.10;3.63;;;20.50;99.90;;;;;;4957068;28;20026;-65
2022/10/28 12:32:39;;;;;;;11.52;4.38;;;20.60;99.90;;;;;;4958302;28;20023;-65
2022/10/28 12:35:14;;;;;;;11.13;3.53;;;20.60;99.90;;;;;;4960483;28;20027;-65
2022/10/28 12:37:50;;;;;;;9.40;3.10;;;20.80;99.90;;;;;;4960554;28;20030;-66
2022/10/28 12:40:26;;;;;;;11.23;4.28;;;20.70;99.90;;;;;;4960713;28;20031;-65
2022/10/28 12:43:04;;;;;;;12.88;3.38;;;20.70;99.90;;;;;;4960907;28;20058;-65
2022/10/28 12:45:31;;;;;;;18.00;4.43;;;20.70;99.90;;;;;;4960494;28;20070;-65
2022/10/28 12:48:26;;;;;;;17.20;4.53;;;20.90;99.90;;;;;;4960404;28;20027;-66
2022/10/28 12:51:04;;;;;;;9.95;3.40;;;21.00;99.90;;;;;;4962168;28;20031;-65
2022/10/28 12:53:41;;;;;;;16.40;3.83;;;21.20;99.90;;;;;;4960374;28;20042;-65
2022/10/28 12:56:17;;;;;;;15.52;4.00;;;21.00;99.90;;;;;;4978019;28;20037;-65
2022/10/28 12:59:09;;;;;;;12.27;3.97;;;20.90;99.90;;;;;;4960163;28;20030;-65
2022/10/28 13:01:34;;;;;;;;;;;20.80;99.90;;;;;;4960842;28;20094;-65
2022/10/28 13:04:00;;;;;;;14.00;3.65;;;20.90;99.90;;;;;;4961000;28;20017;-65